Destinations Dubrovnik Airport

Dubrovnik Airport (LDDU / DBV)

Flights to Dubrovnik Airport

Flight number From ETE Dispatch
SPY-512 EHGG Groningen Airport Eelde 02:30

Flights from Dubrovnik Airport

Flight number To ETE Dispatch
SPY-513 EHGG Groningen Airport Eelde
About

Dubrovnik Airport facts

Dubrovnik Airport is located in Dubrovnik at an elevation of 160.6 meters or 527 feet.

Currently, Speedy Airlines serves 2 flights to and from Dubrovnik Airport.

Detailed airport info

Route map

Weather

Current weather

METAR

METAR

Metar data retrieved Sunday, 21 July 2024 at 18:55 UTC

LDDU 211830Z 29005KT 270V330 CAVOK 26/21 Q1009 NOSIG
Wind Temperature
5 kt 26c